Startpagina
METAR-TAF:

METAR-TAF

Vliegvelden :

Luchthaven Palanga

Palanga, Litouwen

breedte: 55-55-12N, lengte: 021-03E, hoogte: 10 m

Actueel weer

Dit bericht is 30 minuten geleden gemaakt, om 23:50 UTC
Wind 4 kt uit het noorden
Temperatuur 10°C
Vochtigheid 57%
Druk 1024 hPa
Zicht 10 km of meer

METAR: EYPA 312350Z AUTO 01004KT 9999 NCD 10/02 Q1024

Tijdstip: 03:20 (00:20 UTC)

Verwachting

Dit bericht is 1 uur en het 16 minuten geleden gemaakt, om 23:04 UTC
Verwachting geldig van 01 om 00 UTC tot 01 om 24 UTC
Wind 8 kt uit het noorden
Zicht 10 km of meer
geen wolken onder 1500 m en geen cumulonimbus
Tijdelijke
van 01 om 09 UTC tot 01 om 18 UTC
Wind 18 kt uit het noorden met uitschieters tot 28 kt

TAF: EYPA 312304Z 0100/0124 36008KT CAVOK TEMPO 0109/0118 36018G28KT

Waarnemingen en weersverwachtingen van meer dan 4000 vliegvelden (METAR en TAF).

De beschikbare stations zijn de gele en rode punten op de kaart.

Ga met uw muis naar het station om de naam te zien.

Klik dan om waarnemingen en weersverwachtingen te zien.

kaart wijzigen: klik op de groene knoppen met een zwart kruis om in te zoomen, op de groene knop met een streepje om uit te zoomen of op de groene pijlen voor aangrenzende kaarten.


METAR-TAF: